sensor_id;sensor_type;location;lat;lon;timestamp;P1;durP1;ratioP1;P2;durP2;ratioP2
66298;SDS011;53098;47.658;8.578;2024-01-15T00:00:12;10.43;;;3.93;;
66298;SDS011;53098;47.658;8.578;2024-01-15T00:02:38;12.38;;;5.43;;
66298;SDS011;53098;47.658;8.578;2024-01-15T00:05:03;13.33;;;5.00;;
66298;SDS011;53098;47.658;8.578;2024-01-15T00:07:28;11.60;;;4.65;;
66298;SDS011;53098;47.658;8.578;2024-01-15T00:09:54;11.97;;;4.33;;
66298;SDS011;53098;47.658;8.578;2024-01-15T00:12:19;10.00;;;4.37;;
66298;SDS011;53098;47.658;8.578;2024-01-15T00:14:44;10.52;;;4.85;;
66298;SDS011;53098;47.658;8.578;2024-01-15T00:17:10;12.73;;;5.20;;
66298;SDS011;53098;47.658;8.578;2024-01-15T00:19:35;13.23;;;5.50;;
66298;SDS011;53098;47.658;8.578;2024-01-15T00:22:00;14.93;;;5.53;;
66298;SDS011;53098;47.658;8.578;2024-01-15T00:24:25;13.47;;;5.43;;
66298;SDS011;53098;47.658;8.578;2024-01-15T00:26:51;12.88;;;4.93;;
66298;SDS011;53098;47.658;8.578;2024-01-15T00:29:16;13.73;;;5.53;;
66298;SDS011;53098;47.658;8.578;2024-01-15T00:31:41;17.07;;;5.57;;
66298;SDS011;53098;47.658;8.578;2024-01-15T00:34:07;11.30;;;5.27;;
66298;SDS011;53098;47.658;8.578;2024-01-15T00:36:32;12.90;;;5.03;;
66298;SDS011;53098;47.658;8.578;2024-01-15T00:38:57;14.20;;;6.33;;
66298;SDS011;53098;47.658;8.578;2024-01-15T00:41:22;13.37;;;5.40;;
66298;SDS011;53098;47.658;8.578;2024-01-15T00:43:48;11.17;;;5.43;;
66298;SDS011;53098;47.658;8.578;2024-01-15T00:46:13;12.38;;;5.65;;
66298;SDS011;53098;47.658;8.578;2024-01-15T00:48:38;12.88;;;5.38;;
66298;SDS011;53098;47.658;8.578;2024-01-15T00:51:04;12.55;;;5.50;;
66298;SDS011;53098;47.658;8.578;2024-01-15T00:53:29;16.00;;;6.43;;
66298;SDS011;53098;47.658;8.578;2024-01-15T00:55:55;15.25;;;6.55;;
66298;SDS011;53098;47.658;8.578;2024-01-15T00:58:20;14.10;;;5.80;;
66298;SDS011;53098;47.658;8.578;2024-01-15T01:00:45;13.73;;;6.20;;
66298;SDS011;53098;47.658;8.578;2024-01-15T01:03:11;15.07;;;6.63;;
66298;SDS011;53098;47.658;8.578;2024-01-15T01:05:36;16.77;;;7.20;;
66298;SDS011;53098;47.658;8.578;2024-01-15T01:08:02;14.57;;;6.50;;
66298;SDS011;53098;47.658;8.578;2024-01-15T01:10:27;14.90;;;7.13;;
66298;SDS011;53098;47.658;8.578;2024-01-15T01:12:52;14.63;;;6.93;;
66298;SDS011;53098;47.658;8.578;2024-01-15T01:15:18;16.70;;;7.23;;
66298;SDS011;53098;47.658;8.578;2024-01-15T01:17:43;14.32;;;6.30;;
66298;SDS011;53098;47.658;8.578;2024-01-15T01:20:08;16.33;;;7.47;;
66298;SDS011;53098;47.658;8.578;2024-01-15T01:22:34;14.00;;;6.40;;
66298;SDS011;53098;47.658;8.578;2024-01-15T01:24:59;15.63;;;6.97;;
66298;SDS011;53098;47.658;8.578;2024-01-15T01:27:25;13.60;;;6.40;;
66298;SDS011;53098;47.658;8.578;2024-01-15T01:29:50;18.67;;;8.60;;
66298;SDS011;53098;47.658;8.578;2024-01-15T01:32:15;19.00;;;7.90;;
66298;SDS011;53098;47.658;8.578;2024-01-15T01:34:41;17.17;;;7.10;;
66298;SDS011;53098;47.658;8.578;2024-01-15T01:37:06;17.92;;;7.53;;
66298;SDS011;53098;47.658;8.578;2024-01-15T01:39:31;16.60;;;7.40;;
66298;SDS011;53098;47.658;8.578;2024-01-15T01:41:57;16.70;;;8.00;;
66298;SDS011;53098;47.658;8.578;2024-01-15T01:44:22;18.03;;;7.77;;
66298;SDS011;53098;47.658;8.578;2024-01-15T01:46:47;16.00;;;7.40;;
66298;SDS011;53098;47.658;8.578;2024-01-15T01:49:13;15.18;;;7.00;;
66298;SDS011;53098;47.658;8.578;2024-01-15T01:51:38;17.40;;;8.45;;
66298;SDS011;53098;47.658;8.578;2024-01-15T01:54:04;16.27;;;8.10;;
66298;SDS011;53098;47.658;8.578;2024-01-15T01:56:29;19.55;;;8.38;;
66298;SDS011;53098;47.658;8.578;2024-01-15T01:58:55;20.05;;;9.40;;
66298;SDS011;53098;47.658;8.578;2024-01-15T02:01:20;20.35;;;8.57;;
66298;SDS011;53098;47.658;8.578;2024-01-15T02:03:46;19.33;;;8.93;;
66298;SDS011;53098;47.658;8.578;2024-01-15T02:06:11;22.47;;;8.23;;
66298;SDS011;53098;47.658;8.578;2024-01-15T02:08:36;22.90;;;9.60;;
66298;SDS011;53098;47.658;8.578;2024-01-15T02:11:02;20.92;;;9.25;;
66298;SDS011;53098;47.658;8.578;2024-01-15T02:13:27;27.93;;;10.20;;
66298;SDS011;53098;47.658;8.578;2024-01-15T02:15:52;24.13;;;9.67;;
66298;SDS011;53098;47.658;8.578;2024-01-15T02:18:17;18.53;;;8.30;;
66298;SDS011;53098;47.658;8.578;2024-01-15T02:20:43;20.47;;;8.20;;
66298;SDS011;53098;47.658;8.578;2024-01-15T02:23:09;24.30;;;9.57;;
66298;SDS011;53098;47.658;8.578;2024-01-15T02:25:35;22.80;;;9.43;;
66298;SDS011;53098;47.658;8.578;2024-01-15T02:28:00;21.08;;;9.18;;
66298;SDS011;53098;47.658;8.578;2024-01-15T02:30:25;21.73;;;9.07;;
66298;SDS011;53098;47.658;8.578;2024-01-15T02:32:52;20.10;;;9.23;;
66298;SDS011;53098;47.658;8.578;2024-01-15T02:35:17;17.47;;;7.97;;
66298;SDS011;53098;47.658;8.578;2024-01-15T02:37:43;19.03;;;8.57;;
66298;SDS011;53098;47.658;8.578;2024-01-15T02:40:08;18.17;;;8.03;;
66298;SDS011;53098;47.658;8.578;2024-01-15T02:42:33;19.38;;;8.15;;
66298;SDS011;53098;47.658;8.578;2024-01-15T02:44:58;21.30;;;8.70;;
66298;SDS011;53098;47.658;8.578;2024-01-15T02:47:24;21.00;;;8.60;;
66298;SDS011;53098;47.658;8.578;2024-01-15T02:49:49;21.77;;;9.03;;
66298;SDS011;53098;47.658;8.578;2024-01-15T02:52:15;18.88;;;8.15;;
66298;SDS011;53098;47.658;8.578;2024-01-15T02:54:40;19.05;;;8.32;;
66298;SDS011;53098;47.658;8.578;2024-01-15T02:57:05;17.60;;;7.13;;
66298;SDS011;53098;47.658;8.578;2024-01-15T02:59:31;19.33;;;8.03;;
66298;SDS011;53098;47.658;8.578;2024-01-15T03:01:56;22.30;;;8.53;;
66298;SDS011;53098;47.658;8.578;2024-01-15T03:04:21;21.80;;;8.70;;
66298;SDS011;53098;47.658;8.578;2024-01-15T03:06:46;17.30;;;7.53;;
66298;SDS011;53098;47.658;8.578;2024-01-15T03:09:12;18.37;;;8.07;;
66298;SDS011;53098;47.658;8.578;2024-01-15T03:11:37;19.23;;;7.60;;
66298;SDS011;53098;47.658;8.578;2024-01-15T03:14:02;20.33;;;8.50;;
66298;SDS011;53098;47.658;8.578;2024-01-15T03:16:28;21.13;;;7.53;;
66298;SDS011;53098;47.658;8.578;2024-01-15T03:18:53;18.90;;;8.43;;
66298;SDS011;53098;47.658;8.578;2024-01-15T03:21:18;19.20;;;7.50;;
66298;SDS011;53098;47.658;8.578;2024-01-15T03:23:43;18.60;;;7.70;;
66298;SDS011;53098;47.658;8.578;2024-01-15T03:26:09;21.60;;;8.30;;
66298;SDS011;53098;47.658;8.578;2024-01-15T03:28:34;24.87;;;8.67;;
66298;SDS011;53098;47.658;8.578;2024-01-15T03:30:59;21.90;;;9.37;;
66298;SDS011;53098;47.658;8.578;2024-01-15T03:33:25;19.30;;;7.93;;
66298;SDS011;53098;47.658;8.578;2024-01-15T03:35:50;20.53;;;8.50;;
66298;SDS011;53098;47.658;8.578;2024-01-15T03:38:15;22.90;;;8.43;;
66298;SDS011;53098;47.658;8.578;2024-01-15T03:40:40;20.80;;;8.07;;
66298;SDS011;53098;47.658;8.578;2024-01-15T03:43:06;20.67;;;8.23;;
66298;SDS011;53098;47.658;8.578;2024-01-15T03:45:31;20.93;;;7.87;;
66298;SDS011;53098;47.658;8.578;2024-01-15T03:47:56;18.30;;;7.50;;
66298;SDS011;53098;47.658;8.578;2024-01-15T03:50:21;21.83;;;7.57;;
66298;SDS011;53098;47.658;8.578;2024-01-15T03:52:47;23.20;;;8.40;;
66298;SDS011;53098;47.658;8.578;2024-01-15T03:55:12;21.27;;;8.50;;
66298;SDS011;53098;47.658;8.578;2024-01-15T03:57:37;19.53;;;7.70;;
66298;SDS011;53098;47.658;8.578;2024-01-15T04:00:03;25.37;;;8.63;;
66298;SDS011;53098;47.658;8.578;2024-01-15T04:02:28;25.55;;;9.10;;
66298;SDS011;53098;47.658;8.578;2024-01-15T04:04:53;20.40;;;7.40;;
66298;SDS011;53098;47.658;8.578;2024-01-15T04:07:19;22.50;;;8.93;;
66298;SDS011;53098;47.658;8.578;2024-01-15T04:09:44;21.70;;;8.67;;
66298;SDS011;53098;47.658;8.578;2024-01-15T04:12:09;23.27;;;9.20;;
66298;SDS011;53098;47.658;8.578;2024-01-15T04:14:34;23.00;;;8.03;;
66298;SDS011;53098;47.658;8.578;2024-01-15T04:17:00;24.37;;;8.83;;
66298;SDS011;53098;47.658;8.578;2024-01-15T04:19:25;21.40;;;8.67;;
66298;SDS011;53098;47.658;8.578;2024-01-15T04:21:50;22.40;;;8.93;;
66298;SDS011;53098;47.658;8.578;2024-01-15T04:24:15;22.30;;;8.90;;
66298;SDS011;53098;47.658;8.578;2024-01-15T04:26:41;23.80;;;9.20;;
66298;SDS011;53098;47.658;8.578;2024-01-15T04:29:06;24.37;;;9.20;;
66298;SDS011;53098;47.658;8.578;2024-01-15T04:31:31;23.10;;;8.80;;
66298;SDS011;53098;47.658;8.578;2024-01-15T04:33:57;25.13;;;9.70;;
66298;SDS011;53098;47.658;8.578;2024-01-15T04:36:22;21.10;;;8.43;;
66298;SDS011;53098;47.658;8.578;2024-01-15T04:38:47;22.40;;;8.68;;
66298;SDS011;53098;47.658;8.578;2024-01-15T04:41:13;20.55;;;8.55;;
66298;SDS011;53098;47.658;8.578;2024-01-15T04:43:39;24.42;;;9.15;;
66298;SDS011;53098;47.658;8.578;2024-01-15T04:46:05;23.93;;;9.03;;
66298;SDS011;53098;47.658;8.578;2024-01-15T04:48:31;22.90;;;8.85;;
66298;SDS011;53098;47.658;8.578;2024-01-15T04:50:56;23.20;;;9.32;;
66298;SDS011;53098;47.658;8.578;2024-01-15T04:53:21;23.33;;;8.77;;
66298;SDS011;53098;47.658;8.578;2024-01-15T04:55:47;20.77;;;7.77;;
66298;SDS011;53098;47.658;8.578;2024-01-15T04:58:12;17.58;;;7.30;;
66298;SDS011;53098;47.658;8.578;2024-01-15T05:00:38;16.83;;;6.63;;
66298;SDS011;53098;47.658;8.578;2024-01-15T05:03:03;17.00;;;6.93;;
66298;SDS011;53098;47.658;8.578;2024-01-15T05:05:29;18.65;;;7.13;;
66298;SDS011;53098;47.658;8.578;2024-01-15T05:07:54;18.70;;;7.37;;
66298;SDS011;53098;47.658;8.578;2024-01-15T05:10:20;16.23;;;6.25;;
66298;SDS011;53098;47.658;8.578;2024-01-15T05:12:45;18.97;;;6.60;;
66298;SDS011;53098;47.658;8.578;2024-01-15T05:15:10;14.03;;;5.60;;
66298;SDS011;53098;47.658;8.578;2024-01-15T05:17:36;16.50;;;5.88;;
66298;SDS011;53098;47.658;8.578;2024-01-15T05:20:01;13.45;;;5.43;;
66298;SDS011;53098;47.658;8.578;2024-01-15T05:22:27;14.77;;;5.35;;
66298;SDS011;53098;47.658;8.578;2024-01-15T05:24:52;16.75;;;6.25;;
66298;SDS011;53098;47.658;8.578;2024-01-15T05:27:18;14.15;;;5.65;;
66298;SDS011;53098;47.658;8.578;2024-01-15T05:29:43;18.95;;;6.05;;
66298;SDS011;53098;47.658;8.578;2024-01-15T05:32:09;15.77;;;5.50;;
66298;SDS011;53098;47.658;8.578;2024-01-15T05:34:34;14.90;;;5.63;;
66298;SDS011;53098;47.658;8.578;2024-01-15T05:37:00;14.57;;;5.30;;
66298;SDS011;53098;47.658;8.578;2024-01-15T05:39:25;18.95;;;5.75;;
66298;SDS011;53098;47.658;8.578;2024-01-15T05:41:51;15.73;;;6.13;;
66298;SDS011;53098;47.658;8.578;2024-01-15T05:44:16;15.55;;;5.90;;
66298;SDS011;53098;47.658;8.578;2024-01-15T05:46:42;15.27;;;5.75;;
66298;SDS011;53098;47.658;8.578;2024-01-15T05:49:07;14.25;;;6.05;;
66298;SDS011;53098;47.658;8.578;2024-01-15T05:51:33;16.37;;;7.00;;
66298;SDS011;53098;47.658;8.578;2024-01-15T05:53:58;14.85;;;6.30;;
66298;SDS011;53098;47.658;8.578;2024-01-15T05:56:23;15.25;;;6.05;;
66298;SDS011;53098;47.658;8.578;2024-01-15T05:58:49;14.68;;;6.10;;
66298;SDS011;53098;47.658;8.578;2024-01-15T06:01:14;18.50;;;7.07;;
66298;SDS011;53098;47.658;8.578;2024-01-15T06:03:40;17.50;;;6.15;;
66298;SDS011;53098;47.658;8.578;2024-01-15T06:06:05;16.33;;;6.28;;
66298;SDS011;53098;47.658;8.578;2024-01-15T06:08:30;16.70;;;6.32;;
66298;SDS011;53098;47.658;8.578;2024-01-15T06:10:56;19.43;;;7.47;;
66298;SDS011;53098;47.658;8.578;2024-01-15T06:13:21;14.25;;;5.82;;
66298;SDS011;53098;47.658;8.578;2024-01-15T06:15:46;15.10;;;5.73;;
66298;SDS011;53098;47.658;8.578;2024-01-15T06:18:12;17.35;;;6.63;;
66298;SDS011;53098;47.658;8.578;2024-01-15T06:20:37;17.17;;;6.43;;
66298;SDS011;53098;47.658;8.578;2024-01-15T06:23:03;16.48;;;6.18;;
66298;SDS011;53098;47.658;8.578;2024-01-15T06:25:28;18.73;;;6.00;;
66298;SDS011;53098;47.658;8.578;2024-01-15T06:27:53;14.00;;;5.77;;
66298;SDS011;53098;47.658;8.578;2024-01-15T06:30:18;17.37;;;6.20;;
66298;SDS011;53098;47.658;8.578;2024-01-15T06:32:44;18.20;;;6.73;;
66298;SDS011;53098;47.658;8.578;2024-01-15T06:35:09;18.48;;;6.28;;
66298;SDS011;53098;47.658;8.578;2024-01-15T06:37:34;17.10;;;6.28;;
66298;SDS011;53098;47.658;8.578;2024-01-15T06:40:00;15.20;;;6.40;;
66298;SDS011;53098;47.658;8.578;2024-01-15T06:42:25;17.33;;;6.40;;
66298;SDS011;53098;47.658;8.578;2024-01-15T06:44:50;16.90;;;6.20;;
66298;SDS011;53098;47.658;8.578;2024-01-15T06:47:16;17.37;;;6.70;;
66298;SDS011;53098;47.658;8.578;2024-01-15T06:49:41;18.80;;;6.93;;
66298;SDS011;53098;47.658;8.578;2024-01-15T06:52:06;18.83;;;7.27;;
66298;SDS011;53098;47.658;8.578;2024-01-15T06:54:31;16.20;;;6.77;;
66298;SDS011;53098;47.658;8.578;2024-01-15T06:56:57;17.25;;;6.70;;
66298;SDS011;53098;47.658;8.578;2024-01-15T06:59:22;15.60;;;5.77;;
66298;SDS011;53098;47.658;8.578;2024-01-15T07:01:48;15.77;;;5.67;;
66298;SDS011;53098;47.658;8.578;2024-01-15T07:04:13;13.83;;;5.70;;
66298;SDS011;53098;47.658;8.578;2024-01-15T07:06:38;15.83;;;6.00;;
66298;SDS011;53098;47.658;8.578;2024-01-15T07:09:03;16.80;;;5.70;;
66298;SDS011;53098;47.658;8.578;2024-01-15T07:11:29;16.00;;;5.97;;
66298;SDS011;53098;47.658;8.578;2024-01-15T07:13:54;14.07;;;5.00;;
66298;SDS011;53098;47.658;8.578;2024-01-15T07:16:19;14.57;;;5.80;;
66298;SDS011;53098;47.658;8.578;2024-01-15T07:18:44;14.63;;;6.03;;
66298;SDS011;53098;47.658;8.578;2024-01-15T07:21:10;16.30;;;6.17;;
66298;SDS011;53098;47.658;8.578;2024-01-15T07:23:35;15.50;;;6.10;;
66298;SDS011;53098;47.658;8.578;2024-01-15T07:26:00;17.40;;;6.33;;
66298;SDS011;53098;47.658;8.578;2024-01-15T07:28:26;14.33;;;5.93;;
66298;SDS011;53098;47.658;8.578;2024-01-15T07:30:53;14.85;;;5.72;;
66298;SDS011;53098;47.658;8.578;2024-01-15T07:33:18;14.87;;;5.90;;
66298;SDS011;53098;47.658;8.578;2024-01-15T07:35:44;17.42;;;6.75;;
66298;SDS011;53098;47.658;8.578;2024-01-15T07:38:09;17.15;;;6.00;;
66298;SDS011;53098;47.658;8.578;2024-01-15T07:40:35;13.97;;;5.37;;
66298;SDS011;53098;47.658;8.578;2024-01-15T07:43:00;19.27;;;6.50;;
66298;SDS011;53098;47.658;8.578;2024-01-15T07:45:25;19.43;;;6.63;;
66298;SDS011;53098;47.658;8.578;2024-01-15T07:47:50;15.37;;;6.23;;
66298;SDS011;53098;47.658;8.578;2024-01-15T07:50:16;17.87;;;6.70;;
66298;SDS011;53098;47.658;8.578;2024-01-15T07:52:41;16.05;;;6.20;;
66298;SDS011;53098;47.658;8.578;2024-01-15T07:55:06;18.30;;;7.60;;
66298;SDS011;53098;47.658;8.578;2024-01-15T07:57:32;19.67;;;6.97;;
66298;SDS011;53098;47.658;8.578;2024-01-15T07:59:57;16.75;;;6.90;;
66298;SDS011;53098;47.658;8.578;2024-01-15T08:02:22;18.23;;;7.20;;
66298;SDS011;53098;47.658;8.578;2024-01-15T08:04:48;21.75;;;8.90;;
66298;SDS011;53098;47.658;8.578;2024-01-15T08:07:13;20.40;;;8.37;;
66298;SDS011;53098;47.658;8.578;2024-01-15T08:09:39;20.00;;;8.53;;
66298;SDS011;53098;47.658;8.578;2024-01-15T08:12:04;20.98;;;9.15;;
66298;SDS011;53098;47.658;8.578;2024-01-15T08:14:29;22.42;;;9.15;;
66298;SDS011;53098;47.658;8.578;2024-01-15T08:16:55;20.40;;;8.87;;
66298;SDS011;53098;47.658;8.578;2024-01-15T08:19:20;23.63;;;9.20;;
66298;SDS011;53098;47.658;8.578;2024-01-15T08:21:45;24.23;;;9.80;;
66298;SDS011;53098;47.658;8.578;2024-01-15T08:24:11;23.90;;;9.83;;
66298;SDS011;53098;47.658;8.578;2024-01-15T08:26:36;26.37;;;10.30;;
66298;SDS011;53098;47.658;8.578;2024-01-15T08:29:01;24.48;;;10.20;;
66298;SDS011;53098;47.658;8.578;2024-01-15T08:31:27;24.00;;;9.43;;
66298;SDS011;53098;47.658;8.578;2024-01-15T08:33:52;24.50;;;10.15;;
66298;SDS011;53098;47.658;8.578;2024-01-15T08:36:18;19.15;;;8.82;;
66298;SDS011;53098;47.658;8.578;2024-01-15T08:38:43;23.63;;;9.13;;
66298;SDS011;53098;47.658;8.578;2024-01-15T08:41:09;22.77;;;9.02;;
66298;SDS011;53098;47.658;8.578;2024-01-15T08:43:34;21.53;;;8.87;;
66298;SDS011;53098;47.658;8.578;2024-01-15T08:46:00;21.17;;;8.73;;
66298;SDS011;53098;47.658;8.578;2024-01-15T08:48:25;19.02;;;8.27;;
66298;SDS011;53098;47.658;8.578;2024-01-15T08:50:50;20.73;;;8.20;;
66298;SDS011;53098;47.658;8.578;2024-01-15T08:53:16;21.80;;;7.70;;
66298;SDS011;53098;47.658;8.578;2024-01-15T08:55:41;23.40;;;8.00;;
66298;SDS011;53098;47.658;8.578;2024-01-15T08:58:06;19.87;;;7.23;;
66298;SDS011;53098;47.658;8.578;2024-01-15T09:00:31;18.43;;;8.30;;
66298;SDS011;53098;47.658;8.578;2024-01-15T09:02:57;22.17;;;8.27;;
66298;SDS011;53098;47.658;8.578;2024-01-15T09:05:22;20.20;;;7.63;;
66298;SDS011;53098;47.658;8.578;2024-01-15T09:07:48;21.17;;;7.47;;
66298;SDS011;53098;47.658;8.578;2024-01-15T09:10:13;21.40;;;8.30;;
66298;SDS011;53098;47.658;8.578;2024-01-15T09:12:39;18.75;;;8.18;;
66298;SDS011;53098;47.658;8.578;2024-01-15T09:15:05;17.85;;;7.57;;
66298;SDS011;53098;47.658;8.578;2024-01-15T09:17:31;19.98;;;7.90;;
66298;SDS011;53098;47.658;8.578;2024-01-15T09:19:56;17.08;;;7.55;;
66298;SDS011;53098;47.658;8.578;2024-01-15T09:22:22;17.20;;;7.22;;
66298;SDS011;53098;47.658;8.578;2024-01-15T09:24:47;21.60;;;8.37;;
66298;SDS011;53098;47.658;8.578;2024-01-15T09:27:12;17.27;;;7.25;;
66298;SDS011;53098;47.658;8.578;2024-01-15T09:29:38;16.42;;;6.20;;
66298;SDS011;53098;47.658;8.578;2024-01-15T09:32:04;19.55;;;7.38;;
66298;SDS011;53098;47.658;8.578;2024-01-15T09:34:30;14.65;;;6.25;;
66298;SDS011;53098;47.658;8.578;2024-01-15T09:36:56;17.95;;;7.28;;
66298;SDS011;53098;47.658;8.578;2024-01-15T09:39:21;18.10;;;6.68;;
66298;SDS011;53098;47.658;8.578;2024-01-15T09:41:47;15.13;;;6.10;;
66298;SDS011;53098;47.658;8.578;2024-01-15T09:44:13;15.15;;;5.78;;
66298;SDS011;53098;47.658;8.578;2024-01-15T09:46:39;17.63;;;6.20;;
66298;SDS011;53098;47.658;8.578;2024-01-15T09:49:06;15.93;;;5.97;;
66298;SDS011;53098;47.658;8.578;2024-01-15T09:51:33;15.23;;;5.85;;
66298;SDS011;53098;47.658;8.578;2024-01-15T09:53:59;14.18;;;5.82;;
66298;SDS011;53098;47.658;8.578;2024-01-15T09:56:24;17.80;;;5.68;;
66298;SDS011;53098;47.658;8.578;2024-01-15T09:58:50;17.83;;;6.60;;
66298;SDS011;53098;47.658;8.578;2024-01-15T10:01:15;14.13;;;6.00;;
66298;SDS011;53098;47.658;8.578;2024-01-15T10:03:42;18.15;;;5.60;;
66298;SDS011;53098;47.658;8.578;2024-01-15T10:06:08;13.32;;;6.00;;
66298;SDS011;53098;47.658;8.578;2024-01-15T10:08:34;16.40;;;5.82;;
66298;SDS011;53098;47.658;8.578;2024-01-15T10:11:02;14.75;;;5.65;;
66298;SDS011;53098;47.658;8.578;2024-01-15T10:13:28;15.30;;;5.45;;
66298;SDS011;53098;47.658;8.578;2024-01-15T10:15:54;12.55;;;5.13;;
66298;SDS011;53098;47.658;8.578;2024-01-15T10:18:20;16.03;;;6.27;;
66298;SDS011;53098;47.658;8.578;2024-01-15T10:20:45;14.17;;;5.93;;
66298;SDS011;53098;47.658;8.578;2024-01-15T10:23:10;13.43;;;5.60;;
66298;SDS011;53098;47.658;8.578;2024-01-15T10:25:36;14.23;;;5.65;;
66298;SDS011;53098;47.658;8.578;2024-01-15T10:28:02;13.85;;;4.93;;
66298;SDS011;53098;47.658;8.578;2024-01-15T10:30:28;14.77;;;5.68;;
66298;SDS011;53098;47.658;8.578;2024-01-15T10:32:57;12.93;;;5.18;;
66298;SDS011;53098;47.658;8.578;2024-01-15T10:35:23;13.15;;;5.47;;
66298;SDS011;53098;47.658;8.578;2024-01-15T10:37:51;11.93;;;5.05;;
66298;SDS011;53098;47.658;8.578;2024-01-15T10:40:17;15.35;;;5.38;;
66298;SDS011;53098;47.658;8.578;2024-01-15T10:42:44;12.65;;;5.00;;
66298;SDS011;53098;47.658;8.578;2024-01-15T10:45:09;12.23;;;5.35;;
66298;SDS011;53098;47.658;8.578;2024-01-15T10:47:35;14.23;;;4.95;;
66298;SDS011;53098;47.658;8.578;2024-01-15T10:50:01;12.70;;;4.53;;
66298;SDS011;53098;47.658;8.578;2024-01-15T10:52:27;13.80;;;5.00;;
66298;SDS011;53098;47.658;8.578;2024-01-15T10:54:53;10.25;;;3.88;;
66298;SDS011;53098;47.658;8.578;2024-01-15T10:57:18;10.93;;;4.53;;
66298;SDS011;53098;47.658;8.578;2024-01-15T10:59:46;10.38;;;4.25;;
66298;SDS011;53098;47.658;8.578;2024-01-15T11:02:12;10.27;;;3.90;;
66298;SDS011;53098;47.658;8.578;2024-01-15T11:04:38;10.63;;;4.18;;
66298;SDS011;53098;47.658;8.578;2024-01-15T11:07:03;12.07;;;4.90;;
66298;SDS011;53098;47.658;8.578;2024-01-15T11:09:30;12.77;;;5.03;;
66298;SDS011;53098;47.658;8.578;2024-01-15T11:12:10;13.63;;;5.93;;
66298;SDS011;53098;47.658;8.578;2024-01-15T11:14:39;12.55;;;5.47;;
66298;SDS011;53098;47.658;8.578;2024-01-15T11:17:05;12.02;;;4.22;;
66298;SDS011;53098;47.658;8.578;2024-01-15T11:26:58;9.77;;;4.00;;
66298;SDS011;53098;47.658;8.578;2024-01-15T11:31:56;10.45;;;4.20;;
66298;SDS011;53098;47.658;8.578;2024-01-15T11:34:49;10.30;;;4.15;;
66298;SDS011;53098;47.658;8.578;2024-01-15T11:37:08;11.48;;;4.28;;
66298;SDS011;53098;47.658;8.578;2024-01-15T11:41:59;9.60;;;4.13;;
66298;SDS011;53098;47.658;8.578;2024-01-15T11:44:25;9.95;;;4.10;;
66298;SDS011;53098;47.658;8.578;2024-01-15T11:47:01;9.40;;;3.95;;
66298;SDS011;53098;47.658;8.578;2024-01-15T11:51:58;10.50;;;4.43;;
66298;SDS011;53098;47.658;8.578;2024-01-15T11:54:24;9.00;;;3.70;;
66298;SDS011;53098;47.658;8.578;2024-01-15T11:56:51;9.27;;;4.25;;
66298;SDS011;53098;47.658;8.578;2024-01-15T11:59:16;12.30;;;5.63;;
66298;SDS011;53098;47.658;8.578;2024-01-15T12:01:42;10.20;;;4.45;;
66298;SDS011;53098;47.658;8.578;2024-01-15T12:04:08;9.48;;;4.15;;
66298;SDS011;53098;47.658;8.578;2024-01-15T12:06:34;11.38;;;4.22;;
66298;SDS011;53098;47.658;8.578;2024-01-15T12:09:06;11.27;;;4.20;;
66298;SDS011;53098;47.658;8.578;2024-01-15T12:11:32;9.52;;;4.00;;
66298;SDS011;53098;47.658;8.578;2024-01-15T12:14:03;11.48;;;4.20;;
66298;SDS011;53098;47.658;8.578;2024-01-15T12:16:30;10.73;;;4.70;;
66298;SDS011;53098;47.658;8.578;2024-01-15T12:18:55;11.10;;;5.78;;
66298;SDS011;53098;47.658;8.578;2024-01-15T12:21:21;10.45;;;4.38;;
66298;SDS011;53098;47.658;8.578;2024-01-15T12:23:47;8.93;;;4.03;;
66298;SDS011;53098;47.658;8.578;2024-01-15T12:26:13;10.48;;;4.45;;
66298;SDS011;53098;47.658;8.578;2024-01-15T12:28:40;9.15;;;3.65;;
66298;SDS011;53098;47.658;8.578;2024-01-15T12:31:06;9.40;;;3.97;;
66298;SDS011;53098;47.658;8.578;2024-01-15T12:33:32;7.43;;;3.33;;
66298;SDS011;53098;47.658;8.578;2024-01-15T12:35:58;10.00;;;3.95;;
66298;SDS011;53098;47.658;8.578;2024-01-15T12:38:30;9.93;;;3.70;;
66298;SDS011;53098;47.658;8.578;2024-01-15T12:40:55;10.00;;;3.85;;
66298;SDS011;53098;47.658;8.578;2024-01-15T12:43:21;8.93;;;3.80;;
66298;SDS011;53098;47.658;8.578;2024-01-15T12:45:46;8.38;;;3.72;;
66298;SDS011;53098;47.658;8.578;2024-01-15T12:48:12;9.15;;;3.65;;
66298;SDS011;53098;47.658;8.578;2024-01-15T12:50:37;9.90;;;4.15;;
66298;SDS011;53098;47.658;8.578;2024-01-15T12:53:02;10.27;;;4.20;;
66298;SDS011;53098;47.658;8.578;2024-01-15T12:55:28;8.75;;;3.10;;
66298;SDS011;53098;47.658;8.578;2024-01-15T12:57:54;7.32;;;3.15;;
66298;SDS011;53098;47.658;8.578;2024-01-15T13:00:21;8.10;;;3.08;;
66298;SDS011;53098;47.658;8.578;2024-01-15T13:02:46;10.43;;;4.40;;
66298;SDS011;53098;47.658;8.578;2024-01-15T13:05:12;9.68;;;3.95;;
66298;SDS011;53098;47.658;8.578;2024-01-15T13:07:37;12.27;;;4.25;;
66298;SDS011;53098;47.658;8.578;2024-01-15T13:10:03;11.73;;;4.47;;
66298;SDS011;53098;47.658;8.578;2024-01-15T13:12:28;11.10;;;4.55;;
66298;SDS011;53098;47.658;8.578;2024-01-15T13:14:54;12.15;;;5.03;;
66298;SDS011;53098;47.658;8.578;2024-01-15T13:17:19;10.60;;;4.65;;
66298;SDS011;53098;47.658;8.578;2024-01-15T13:19:45;11.38;;;5.13;;
66298;SDS011;53098;47.658;8.578;2024-01-15T13:22:11;12.55;;;5.45;;
66298;SDS011;53098;47.658;8.578;2024-01-15T13:24:36;12.80;;;5.55;;
66298;SDS011;53098;47.658;8.578;2024-01-15T13:27:03;12.48;;;5.40;;
66298;SDS011;53098;47.658;8.578;2024-01-15T13:29:28;14.52;;;5.95;;
66298;SDS011;53098;47.658;8.578;2024-01-15T13:31:53;15.02;;;6.00;;
66298;SDS011;53098;47.658;8.578;2024-01-15T13:34:19;13.93;;;5.63;;
66298;SDS011;53098;47.658;8.578;2024-01-15T13:36:44;14.23;;;6.53;;
66298;SDS011;53098;47.658;8.578;2024-01-15T13:39:09;17.07;;;7.30;;
66298;SDS011;53098;47.658;8.578;2024-01-15T13:41:35;16.92;;;7.20;;
66298;SDS011;53098;47.658;8.578;2024-01-15T13:44:00;14.75;;;6.97;;
66298;SDS011;53098;47.658;8.578;2024-01-15T13:46:26;14.17;;;7.00;;
66298;SDS011;53098;47.658;8.578;2024-01-15T13:48:51;16.80;;;6.93;;
66298;SDS011;53098;47.658;8.578;2024-01-15T13:51:16;17.00;;;7.03;;
66298;SDS011;53098;47.658;8.578;2024-01-15T13:53:42;17.42;;;7.38;;
66298;SDS011;53098;47.658;8.578;2024-01-15T13:56:07;16.27;;;7.68;;
66298;SDS011;53098;47.658;8.578;2024-01-15T13:58:33;16.75;;;7.65;;
66298;SDS011;53098;47.658;8.578;2024-01-15T14:01:01;14.98;;;7.40;;
66298;SDS011;53098;47.658;8.578;2024-01-15T14:03:27;15.38;;;7.43;;
66298;SDS011;53098;47.658;8.578;2024-01-15T14:05:52;16.50;;;7.68;;
66298;SDS011;53098;47.658;8.578;2024-01-15T14:08:18;15.75;;;6.93;;
66298;SDS011;53098;47.658;8.578;2024-01-15T14:10:43;14.45;;;7.22;;
66298;SDS011;53098;47.658;8.578;2024-01-15T14:13:08;16.65;;;7.18;;
66298;SDS011;53098;47.658;8.578;2024-01-15T14:15:34;16.97;;;7.50;;
66298;SDS011;53098;47.658;8.578;2024-01-15T14:17:59;20.80;;;7.90;;
66298;SDS011;53098;47.658;8.578;2024-01-15T14:20:25;15.57;;;7.17;;
66298;SDS011;53098;47.658;8.578;2024-01-15T14:22:50;17.83;;;7.00;;
66298;SDS011;53098;47.658;8.578;2024-01-15T14:25:15;18.37;;;7.40;;
66298;SDS011;53098;47.658;8.578;2024-01-15T14:27:41;18.30;;;6.78;;
66298;SDS011;53098;47.658;8.578;2024-01-15T14:30:06;15.40;;;7.13;;
66298;SDS011;53098;47.658;8.578;2024-01-15T14:32:32;17.20;;;7.47;;
66298;SDS011;53098;47.658;8.578;2024-01-15T14:34:57;16.45;;;6.88;;
66298;SDS011;53098;47.658;8.578;2024-01-15T14:37:23;15.48;;;6.82;;
66298;SDS011;53098;47.658;8.578;2024-01-15T14:39:48;17.13;;;7.45;;